Time;durP1;ratioP1;P1;durP2;ratioP2;P2;SDS_P1;SDS_P2;PMS_P1;PMS_P2;Temp;Humidity;BMP_temperature;BMP_pressure;BME280_temperature;BME280_humidity;BME280_pressure;Samples;Min_cycle;Max_cycle;Signal;HPM_P1;HPM_P2
2023/05/16 00:01:15;;;;;;;19.30;9.30;;;;;;;10.50;90.60;99577.23;108672;1272;23760;-83
2023/05/16 00:03:46;;;;;;;17.50;9.70;;;;;;;10.48;90.70;99580.30;108519;1272;22583;-83
2023/05/16 00:06:17;;;;;;;21.20;11.20;;;;;;;10.46;90.76;99585.88;108590;1272;22630;-83
2023/05/16 00:08:48;;;;;;;17.30;9.00;;;;;;;10.43;90.59;99583.11;108547;1275;22643;-83
2023/05/16 00:11:20;;;;;;;16.70;9.10;;;;;;;10.41;90.58;99582.73;108597;1275;23756;-84
2023/05/16 00:13:52;;;;;;;20.30;10.90;;;;;;;10.39;90.41;99579.17;108694;1273;22564;-83
2023/05/16 00:16:28;;;;;;;19.40;9.60;;;;;;;10.37;90.27;99586.30;108574;1267;22611;-83
2023/05/16 00:18:59;;;;;;;18.90;9.40;;;;;;;10.34;90.09;99584.84;108438;1272;25434;-83
2023/05/16 00:21:31;;;;;;;21.10;9.60;;;;;;;10.29;90.09;99590.17;108563;1267;22535;-83
2023/05/16 00:24:02;;;;;;;19.40;9.70;;;;;;;10.26;90.33;99594.75;108623;1275;22538;-83
2023/05/16 00:26:33;;;;;;;22.50;11.60;;;;;;;10.22;90.37;99594.32;108645;1267;22556;-83
2023/05/16 00:29:04;;;;;;;19.80;9.60;;;;;;;10.20;90.39;99597.13;108569;1267;22579;-83
2023/05/16 00:31:35;;;;;;;18.80;9.90;;;;;;;10.16;90.20;99594.96;108608;1273;22561;-83
2023/05/16 00:34:05;;;;;;;22.80;10.80;;;;;;;10.13;90.22;99595.86;108587;1272;24194;-83
2023/05/16 00:36:36;;;;;;;22.80;10.20;;;;;;;10.10;90.28;99596.05;108679;1267;22569;-83
2023/05/16 00:39:07;;;;;;;19.20;10.20;;;;;;;10.08;90.48;99597.02;108611;1275;24145;-83
2023/05/16 00:41:38;;;;;;;19.20;10.00;;;;;;;10.06;90.37;99596.86;108682;1273;25641;-83
2023/05/16 00:44:09;;;;;;;19.30;9.50;;;;;;;10.04;90.51;99596.23;108609;1275;25600;-83
2023/05/16 00:46:40;;;;;;;20.20;10.00;;;;;;;10.03;90.44;99600.27;108554;1275;22468;-83
2023/05/16 00:49:11;;;;;;;20.60;10.00;;;;;;;10.01;90.77;99598.73;108445;1262;24245;-83
2023/05/16 00:51:42;;;;;;;18.30;9.40;;;;;;;10.02;90.88;99600.77;108503;1275;22518;-83
2023/05/16 00:54:13;;;;;;;22.10;11.00;;;;;;;10.01;90.81;99598.64;108578;1275;22562;-83
2023/05/16 00:56:44;;;;;;;20.10;11.30;;;;;;;10.01;90.95;99603.97;108608;1267;23310;-83
2023/05/16 00:59:16;;;;;;;22.50;11.30;;;;;;;10.03;91.08;99603.33;108551;1273;22546;-83
2023/05/16 01:01:49;;;;;;;23.60;12.10;;;;;;;10.03;91.03;99599.66;108597;1267;23778;-83
2023/05/16 01:04:21;;;;;;;21.60;10.40;;;;;;;10.01;91.24;99602.64;108642;1267;22599;-83
2023/05/16 01:06:52;;;;;;;22.10;10.70;;;;;;;10.01;91.41;99606.33;108645;1267;22636;-83
2023/05/16 01:09:23;;;;;;;20.70;9.90;;;;;;;9.99;91.53;99612.25;108564;1275;24381;-83
2023/05/16 01:12:15;;;;;;;22.50;10.80;;;;;;;9.98;91.41;99609.70;108658;1275;24218;-83
2023/05/16 01:14:56;;;;;;;20.10;9.70;;;;;;;9.96;91.29;99608.71;108581;1273;24273;-83
2023/05/16 01:17:36;;;;;;;19.20;10.40;;;;;;;9.93;91.34;99604.42;108542;1267;22610;-83
2023/05/16 01:20:16;;;;;;;20.80;11.20;;;;;;;9.92;91.66;99603.84;108487;1271;22562;-84
2023/05/16 01:23:04;;;;;;;21.30;11.20;;;;;;;9.93;91.74;99615.27;108593;1272;22483;-84
2023/05/16 01:25:57;;;;;;;19.30;9.50;;;;;;;9.93;91.90;99615.88;108674;1274;22890;-83
2023/05/16 01:28:30;;;;;;;22.30;11.40;;;;;;;9.93;92.11;99621.86;108779;1272;22527;-83
2023/05/16 01:31:00;;;;;;;21.40;11.00;;;;;;;9.92;92.25;99623.33;108722;1275;23420;-83
2023/05/16 01:33:31;;;;;;;20.70;10.50;;;;;;;9.93;92.40;99620.74;108555;1267;22556;-83
2023/05/16 01:36:10;;;;;;;21.00;11.50;;;;;;;9.92;92.63;99624.28;108523;1257;22534;-83
2023/05/16 01:38:45;;;;;;;21.20;11.00;;;;;;;9.92;92.59;99625.90;108457;1275;24292;-84
2023/05/16 01:41:21;;;;;;;27.40;12.50;;;;;;;9.92;92.65;99628.04;108560;1273;22502;-83
2023/05/16 01:43:56;;;;;;;25.80;12.30;;;;;;;9.92;92.83;99626.15;108515;1267;25421;-83
2023/05/16 01:46:33;;;;;;;22.30;10.70;;;;;;;9.93;92.68;99628.34;108597;1273;22998;-83
2023/05/16 01:49:16;;;;;;;28.50;11.60;;;;;;;9.91;92.87;99630.71;108615;1267;23239;-83
2023/05/16 01:51:55;;;;;;;24.80;11.90;;;;;;;9.90;92.72;99637.14;108609;1267;22523;-83
2023/05/16 01:54:30;;;;;;;22.10;11.00;;;;;;;9.90;92.85;99644.02;108526;1274;22488;-83
2023/05/16 01:57:07;;;;;;;23.00;11.50;;;;;;;9.91;93.11;99647.80;108506;1275;24087;-83
2023/05/16 01:59:38;;;;;;;26.30;11.80;;;;;;;9.91;92.92;99650.63;110202;1273;22625;-84
2023/05/16 02:02:09;;;;;;;23.70;12.30;;;;;;;9.91;92.69;99648.11;108619;1267;22557;-83
2023/05/16 02:04:40;;;;;;;24.00;10.60;;;;;;;9.91;92.72;99651.23;108525;1272;22571;-83
2023/05/16 02:07:13;;;;;;;20.90;10.30;;;;;;;9.88;92.49;99652.56;108660;1267;22488;-83
2023/05/16 02:09:47;;;;;;;27.00;10.40;;;;;;;9.86;92.41;99652.15;108701;1267;23239;-83
2023/05/16 02:12:18;;;;;;;22.10;10.60;;;;;;;9.83;92.41;99654.34;108659;1274;22558;-83
2023/05/16 02:14:48;;;;;;;19.10;10.40;;;;;;;9.82;92.52;99663.09;108610;1267;22914;-83
2023/05/16 02:17:19;;;;;;;24.40;11.00;;;;;;;9.79;92.39;99664.98;108545;1275;23720;-83
2023/05/16 02:19:50;;;;;;;21.00;10.80;;;;;;;9.78;92.39;99667.20;108663;1267;22644;-83
2023/05/16 02:22:21;;;;;;;21.80;11.00;;;;;;;9.76;92.49;99661.75;108557;1274;22565;-83
2023/05/16 02:24:51;;;;;;;21.00;10.20;;;;;;;9.74;92.62;99654.97;108600;1275;22467;-84
2023/05/16 02:27:22;;;;;;;23.40;11.20;;;;;;;9.72;92.55;99652.73;108559;1275;22479;-83
2023/05/16 02:29:53;;;;;;;23.20;11.80;;;;;;;9.70;92.61;99653.30;108625;1267;22531;-84
2023/05/16 02:32:25;;;;;;;19.10;10.50;;;;;;;9.69;92.51;99652.34;108630;1272;23360;-83
2023/05/16 02:34:55;;;;;;;18.10;10.40;;;;;;;9.67;92.43;99656.98;108635;1272;22559;-83
2023/05/16 02:37:26;;;;;;;20.40;10.40;;;;;;;9.64;92.57;99660.59;108681;1267;22593;-84
2023/05/16 02:39:57;;;;;;;21.00;10.90;;;;;;;9.61;92.46;99665.41;108420;1273;22569;-83
2023/05/16 02:42:29;;;;;;;18.40;9.80;;;;;;;9.57;92.30;99664.85;108537;1275;24336;-84
2023/05/16 02:45:00;;;;;;;18.20;9.00;;;;;;;9.52;92.27;99667.05;109330;1275;22953;-87
2023/05/16 02:47:31;;;;;;;20.20;9.70;;;;;;;9.47;92.08;99666.84;109501;1271;22531;-87
2023/05/16 02:50:02;;;;;;;19.20;9.50;;;;;;;9.44;92.00;99664.50;109620;1272;22971;-89
2023/05/16 02:52:33;;;;;;;18.90;9.80;;;;;;;9.40;91.97;99662.27;109544;1267;22643;-87
2023/05/16 02:55:04;;;;;;;22.20;10.90;;;;;;;9.39;92.29;99660.94;109539;1267;24272;-87
2023/05/16 02:57:36;;;;;;;19.20;9.20;;;;;;;9.40;92.10;99670.53;109703;1267;22576;-88
2023/05/16 03:00:10;;;;;;;18.50;9.10;;;;;;;9.38;92.08;99671.45;109596;1274;22590;-87
2023/05/16 03:02:41;;;;;;;18.10;9.60;;;;;;;9.36;91.96;99676.14;109616;1260;22528;-87
2023/05/16 03:05:12;;;;;;;22.10;9.80;;;;;;;9.35;91.90;99670.45;109451;1272;22507;-88
2023/05/16 03:07:43;;;;;;;20.30;8.90;;;;;;;9.33;91.84;99667.54;109395;1275;23261;-88
2023/05/16 03:10:13;;;;;;;19.40;9.00;;;;;;;9.31;91.83;99662.75;109473;1269;22554;-90
2023/05/16 03:12:44;;;;;;;18.10;9.60;;;;;;;9.30;91.95;99665.67;109301;1267;25316;-87
2023/05/16 03:15:15;;;;;;;20.10;9.60;;;;;;;9.27;91.77;99669.77;109339;1267;22603;-88
2023/05/16 03:17:46;;;;;;;21.60;10.90;;;;;;;9.24;91.91;99673.09;109469;1267;22547;-87
2023/05/16 03:20:18;;;;;;;22.80;10.70;;;;;;;9.23;91.89;99678.83;109578;1273;22574;-87
2023/05/16 03:22:50;;;;;;;24.60;9.40;;;;;;;9.22;91.94;99676.89;109589;1269;23254;-89
2023/05/16 03:25:20;;;;;;;21.20;9.80;;;;;;;9.21;92.00;99672.88;109568;1267;22620;-88
2023/05/16 03:27:51;;;;;;;18.50;8.50;;;;;;;9.20;91.88;99664.52;109481;1267;22633;-89
2023/05/16 03:30:22;;;;;;;20.00;9.80;;;;;;;9.19;92.04;99666.15;109516;1259;22490;-88
2023/05/16 03:32:53;;;;;;;17.30;8.80;;;;;;;9.18;92.00;99670.00;109543;1272;22577;-87
2023/05/16 03:35:24;;;;;;;20.50;10.10;;;;;;;9.17;92.04;99676.57;109601;1267;22632;-88
2023/05/16 03:37:55;;;;;;;23.10;10.10;;;;;;;9.16;92.08;99684.60;109432;1275;22663;-89
2023/05/16 03:40:26;;;;;;;21.50;10.20;;;;;;;9.16;92.13;99686.92;109422;1267;22546;-87
2023/05/16 03:42:57;;;;;;;21.60;10.50;;;;;;;9.16;92.19;99689.80;109505;1267;22403;-87
2023/05/16 03:45:29;;;;;;;19.60;10.20;;;;;;;9.16;92.26;99689.21;109524;1270;22606;-86
2023/05/16 03:48:00;;;;;;;20.60;10.30;;;;;;;9.17;92.34;99700.06;109435;1275;22537;-85
2023/05/16 03:50:31;;;;;;;21.70;11.50;;;;;;;9.16;92.53;99701.46;108945;1263;22483;-82
2023/05/16 03:53:02;;;;;;;21.50;11.20;;;;;;;9.17;92.52;99701.02;108653;1267;24311;-83
2023/05/16 03:55:33;;;;;;;21.00;11.30;;;;;;;9.19;92.76;99706.61;108563;1275;22493;-81
2023/05/16 03:58:04;;;;;;;20.00;10.30;;;;;;;9.22;92.92;99710.02;108426;1267;22601;-81
2023/05/16 04:00:35;;;;;;;23.00;9.90;;;;;;;9.24;92.96;99714.31;108477;1267;22557;-80
2023/05/16 04:03:06;;;;;;;19.80;9.70;;;;;;;9.28;93.16;99715.06;108755;1267;22587;-83
2023/05/16 04:05:37;;;;;;;20.00;10.30;;;;;;;9.32;93.49;99724.09;109028;1267;23770;-83
2023/05/16 04:08:08;;;;;;;21.70;10.10;;;;;;;9.36;93.42;99731.08;109594;1267;25447;-80
2023/05/16 04:10:39;;;;;;;17.70;8.90;;;;;;;9.40;93.63;99742.21;108882;1267;22518;-83
2023/05/16 04:13:10;;;;;;;20.90;10.10;;;;;;;9.46;93.73;99749.84;108857;1261;24277;-82
2023/05/16 04:15:40;;;;;;;19.80;9.90;;;;;;;9.52;93.83;99754.14;108662;1256;22549;-81
2023/05/16 04:18:12;;;;;;;20.90;10.40;;;;;;;9.57;94.26;99761.46;108470;1272;22679;-83
2023/05/16 04:20:46;;;;;;;20.60;10.00;;;;;;;9.63;94.42;99766.02;108533;1267;22637;-84
2023/05/16 04:23:17;;;;;;;18.00;9.70;;;;;;;9.68;94.32;99768.67;108791;1267;22748;-81
2023/05/16 04:25:49;;;;;;;20.20;10.20;;;;;;;9.73;94.57;99772.20;108617;1275;22986;-80
2023/05/16 04:28:19;;;;;;;20.40;11.30;;;;;;;9.79;94.91;99776.64;108731;1271;22637;-82
2023/05/16 04:30:50;;;;;;;22.90;11.10;;;;;;;9.86;94.56;99786.52;108539;1267;22578;-81
2023/05/16 04:33:21;;;;;;;22.60;10.60;;;;;;;9.92;94.92;99781.23;108527;1275;23296;-81
2023/05/16 04:35:53;;;;;;;19.30;10.30;;;;;;;9.98;95.13;99778.80;108616;1269;22570;-82
2023/05/16 04:38:24;;;;;;;22.60;11.40;;;;;;;10.05;95.17;99772.90;108078;1267;22555;-81
2023/05/16 04:40:55;;;;;;;22.50;11.40;;;;;;;10.11;95.28;99754.33;108494;1272;22770;-81
2023/05/16 04:43:26;;;;;;;20.80;10.50;;;;;;;10.18;95.28;99746.52;108983;1267;25274;-82
2023/05/16 04:45:57;;;;;;;19.80;9.70;;;;;;;10.25;95.57;99741.84;109110;1267;22530;-82
2023/05/16 04:48:31;;;;;;;28.30;10.80;;;;;;;10.34;95.66;99743.98;108921;1268;22547;-84
2023/05/16 04:51:01;;;;;;;20.90;10.50;;;;;;;10.44;95.73;99758.20;108867;1274;22524;-83
2023/05/16 04:53:32;;;;;;;23.40;10.40;;;;;;;10.51;95.62;99761.64;108871;1267;24158;-82
2023/05/16 04:56:04;;;;;;;22.20;11.60;;;;;;;10.58;95.57;99765.36;108936;1267;22553;-83
2023/05/16 04:58:36;;;;;;;19.60;10.10;;;;;;;10.66;95.52;99758.91;109331;1274;23701;-81
2023/05/16 05:01:07;;;;;;;23.00;10.90;;;;;;;10.75;95.62;99763.33;108811;1267;22588;-84
2023/05/16 05:03:38;;;;;;;18.50;9.70;;;;;;;10.83;95.52;99772.44;108655;1267;26514;-82
2023/05/16 05:06:09;;;;;;;26.90;11.10;;;;;;;10.93;95.91;99786.30;108964;1251;22544;-82
2023/05/16 05:08:40;;;;;;;19.30;10.40;;;;;;;11.03;96.04;99790.52;108685;1267;25823;-82
2023/05/16 05:11:10;;;;;;;21.30;10.50;;;;;;;11.17;96.19;99805.09;109138;1272;22570;-82
2023/05/16 05:13:41;;;;;;;22.00;9.80;;;;;;;11.28;96.37;99809.71;109086;1267;22532;-86
2023/05/16 05:16:12;;;;;;;19.20;9.50;;;;;;;11.40;96.39;99818.30;108860;1267;22523;-80
2023/05/16 05:18:43;;;;;;;20.10;9.90;;;;;;;11.51;96.21;99823.08;108988;1266;22832;-82
2023/05/16 05:21:14;;;;;;;19.50;9.90;;;;;;;11.59;95.93;99823.73;109132;1267;22512;-82
2023/05/16 05:23:44;;;;;;;20.40;9.70;;;;;;;11.67;95.68;99820.48;108687;1267;24659;-82
2023/05/16 05:26:15;;;;;;;19.30;9.10;;;;;;;11.73;95.53;99825.41;108702;1267;22640;-82
2023/05/16 05:28:46;;;;;;;19.20;8.50;;;;;;;11.80;95.48;99830.55;108572;1267;22598;-81
2023/05/16 05:31:17;;;;;;;17.50;8.40;;;;;;;11.87;95.68;99832.48;108597;1267;22513;-80
2023/05/16 05:33:49;;;;;;;19.10;9.80;;;;;;;11.96;95.73;99834.42;108500;1267;22573;-81
2023/05/16 05:36:20;;;;;;;19.40;9.00;;;;;;;12.04;95.62;99833.72;108444;1274;22575;-83
2023/05/16 05:38:50;;;;;;;18.40;10.00;;;;;;;12.13;95.92;99833.27;108507;1272;23183;-83
2023/05/16 05:41:21;;;;;;;21.90;9.60;;;;;;;12.25;96.02;99841.89;108546;1267;23239;-82
2023/05/16 05:43:52;;;;;;;16.70;7.90;;;;;;;12.35;95.89;99849.83;108564;1268;22601;-81
2023/05/16 05:46:24;;;;;;;14.90;6.90;;;;;;;12.47;95.09;99853.82;108592;1267;22478;-82
2023/05/16 05:48:55;;;;;;;19.50;8.10;;;;;;;12.56;94.36;99843.52;108466;1267;22556;-81
2023/05/16 05:51:26;;;;;;;23.20;7.80;;;;;;;12.65;94.45;99848.66;108402;1256;22504;-81
2023/05/16 05:53:57;;;;;;;16.90;6.90;;;;;;;12.72;94.11;99851.75;108359;1275;23179;-81
2023/05/16 05:56:28;;;;;;;13.70;7.30;;;;;;;12.74;93.21;99851.40;108444;1272;22606;-81
2023/05/16 05:58:59;;;;;;;16.50;7.30;;;;;;;12.77;92.68;99843.56;108492;1267;23055;-81
2023/05/16 06:01:29;;;;;;;16.70;6.80;;;;;;;12.78;92.83;99840.81;108499;1274;22511;-81
2023/05/16 06:04:00;;;;;;;14.90;6.70;;;;;;;12.81;92.93;99843.48;108514;1275;24207;-81
2023/05/16 06:06:31;;;;;;;17.00;7.70;;;;;;;12.85;92.83;99847.83;108545;1267;22566;-81
2023/05/16 06:09:02;;;;;;;16.10;8.00;;;;;;;12.89;93.00;99846.71;108465;1274;25138;-80
2023/05/16 06:11:32;;;;;;;15.30;7.00;;;;;;;12.94;93.02;99848.52;108421;1275;22524;-80
2023/05/16 06:14:04;;;;;;;14.50;7.00;;;;;;;12.99;92.61;99847.20;108394;1272;25421;-80
2023/05/16 06:16:34;;;;;;;16.90;7.00;;;;;;;13.04;92.91;99846.57;108355;1272;22532;-81
2023/05/16 06:19:06;;;;;;;18.80;8.00;;;;;;;13.11;93.00;99845.27;108467;1267;22526;-80
2023/05/16 06:21:37;;;;;;;15.50;7.50;;;;;;;13.19;92.51;99849.06;108420;1267;22511;-80
2023/05/16 06:24:08;;;;;;;17.50;7.10;;;;;;;13.25;92.13;99854.98;108533;1274;22517;-80
2023/05/16 06:26:39;;;;;;;15.70;7.30;;;;;;;13.28;92.18;99856.17;108503;1272;22517;-80
2023/05/16 06:29:09;;;;;;;15.70;7.20;;;;;;;13.33;92.01;99856.48;108531;1272;23569;-80
2023/05/16 06:31:40;;;;;;;15.70;7.10;;;;;;;13.37;91.56;99856.34;108419;1272;23725;-80
2023/05/16 06:34:11;;;;;;;16.40;6.80;;;;;;;13.42;92.14;99865.22;108442;1275;22603;-81
2023/05/16 06:36:43;;;;;;;15.30;7.20;;;;;;;13.47;91.43;99872.36;108400;1259;23904;-80
2023/05/16 06:39:14;;;;;;;14.70;6.80;;;;;;;13.51;91.73;99867.92;108544;1272;23333;-80
2023/05/16 06:41:45;;;;;;;15.90;7.40;;;;;;;13.59;91.93;99868.49;108526;1267;26544;-81
2023/05/16 06:44:16;;;;;;;16.80;7.60;;;;;;;13.61;90.75;99868.23;108470;1269;27405;-81
2023/05/16 06:46:47;;;;;;;16.60;6.60;;;;;;;13.61;91.17;99873.39;108537;1267;25904;-81
2023/05/16 06:49:18;;;;;;;15.80;6.70;;;;;;;13.61;90.41;99878.70;108525;1272;22543;-80
2023/05/16 06:51:48;;;;;;;16.20;7.50;;;;;;;13.60;90.34;99882.06;108467;1267;23277;-80
2023/05/16 06:54:19;;;;;;;17.70;8.00;;;;;;;13.60;90.38;99882.98;108409;1274;22570;-80
2023/05/16 06:56:50;;;;;;;16.30;7.30;;;;;;;13.63;90.64;99876.14;108368;1267;24914;-81
2023/05/16 06:59:21;;;;;;;16.30;7.70;;;;;;;13.70;91.25;99872.17;108342;1269;22510;-81
2023/05/16 07:01:52;;;;;;;15.50;7.60;;;;;;;13.81;91.30;99875.95;108340;1251;23952;-80
2023/05/16 07:04:23;;;;;;;15.10;7.10;;;;;;;13.92;90.87;99879.73;108462;1274;25470;-81
2023/05/16 07:06:53;;;;;;;17.70;7.70;;;;;;;14.04;91.12;99887.53;108487;1269;22570;-81
2023/05/16 07:09:24;;;;;;;17.30;7.90;;;;;;;14.13;91.03;99883.43;108490;1274;22566;-81
2023/05/16 07:11:55;;;;;;;17.40;8.20;;;;;;;14.20;91.02;99892.46;108460;1269;22537;-81
2023/05/16 07:14:26;;;;;;;21.00;8.90;;;;;;;14.26;90.34;99889.74;108441;1263;22513;-81
2023/05/16 07:16:57;;;;;;;13.90;7.20;;;;;;;14.30;90.20;99883.44;108538;1272;22653;-81
2023/05/16 07:19:28;;;;;;;18.70;7.50;;;;;;;14.37;90.32;99881.64;108497;1274;24239;-81
2023/05/16 07:21:58;;;;;;;17.70;7.60;;;;;;;14.42;90.39;99877.86;108486;1274;25558;-81
2023/05/16 07:24:29;;;;;;;17.20;7.70;;;;;;;14.49;90.39;99872.98;108630;1272;22644;-81
2023/05/16 07:27:00;;;;;;;18.50;9.40;;;;;;;14.57;90.66;99872.70;108552;1272;22559;-82
2023/05/16 07:29:31;;;;;;;15.70;7.80;;;;;;;14.64;90.16;99868.59;108654;1274;22600;-82
2023/05/16 07:32:02;;;;;;;19.00;8.30;;;;;;;14.70;89.30;99867.81;108629;1275;23019;-82
2023/05/16 07:34:32;;;;;;;18.10;8.50;;;;;;;14.71;88.76;99865.14;108587;1272;22553;-82
2023/05/16 07:37:03;;;;;;;16.90;8.10;;;;;;;14.70;88.37;99870.27;108538;1274;22489;-82
2023/05/16 07:39:34;;;;;;;15.00;8.00;;;;;;;14.72;88.53;99875.05;108675;1267;22513;-81
2023/05/16 07:42:06;;;;;;;18.20;8.90;;;;;;;14.73;88.20;99875.21;108879;1251;22521;-84
2023/05/16 07:44:37;;;;;;;16.30;8.60;;;;;;;14.73;88.19;99878.02;108725;1275;22515;-81
2023/05/16 07:47:08;;;;;;;17.50;8.10;;;;;;;14.74;88.48;99877.66;108826;1272;22496;-83
2023/05/16 07:49:39;;;;;;;17.20;8.20;;;;;;;14.81;88.75;99877.11;108826;1267;25513;-83
2023/05/16 07:52:09;;;;;;;21.00;9.60;;;;;;;14.83;87.98;99879.00;108899;1272;22578;-83
2023/05/16 07:54:40;;;;;;;16.80;8.00;;;;;;;14.87;88.36;99881.03;108971;1272;22883;-84
2023/05/16 07:57:11;;;;;;;18.80;7.80;;;;;;;14.93;88.16;99888.11;108829;1272;22498;-80
2023/05/16 07:59:42;;;;;;;14.80;7.60;;;;;;;14.99;87.79;99893.60;108165;1269;22566;-81
2023/05/16 08:02:13;;;;;;;16.50;8.40;;;;;;;15.08;87.95;99901.48;108469;1267;22623;-81
2023/05/16 08:04:43;;;;;;;13.70;7.40;;;;;;;15.14;87.16;99905.75;108523;1269;22510;-81
2023/05/16 08:07:14;;;;;;;17.20;8.10;;;;;;;15.22;87.24;99902.89;108519;1269;23117;-81
2023/05/16 08:09:45;;;;;;;16.70;7.80;;;;;;;15.28;86.83;99899.27;108472;1267;22516;-81
2023/05/16 08:12:16;;;;;;;21.90;7.70;;;;;;;15.25;85.69;99907.02;108423;1275;26220;-81
2023/05/16 08:14:47;;;;;;;14.70;7.10;;;;;;;15.22;86.05;99909.23;108388;1267;22549;-78
2023/05/16 08:17:18;;;;;;;23.00;8.60;;;;;;;15.25;85.30;99913.56;108106;1268;22479;-78
2023/05/16 08:19:49;;;;;;;14.60;7.20;;;;;;;15.35;86.33;99914.79;108093;1269;22521;-78
2023/05/16 08:22:20;;;;;;;14.40;6.70;;;;;;;15.47;85.91;99916.64;110479;1267;22154;-79
2023/05/16 08:24:51;;;;;;;16.50;7.10;;;;;;;15.55;85.99;99915.48;108873;1267;22523;-79
2023/05/16 08:27:22;;;;;;;21.70;8.40;;;;;;;15.66;85.88;99918.77;108143;1269;22640;-79
2023/05/16 08:29:53;;;;;;;13.30;6.90;;;;;;;15.78;85.55;99925.34;108025;1272;22546;-79
2023/05/16 08:32:24;;;;;;;15.70;6.40;;;;;;;15.83;84.43;99928.80;108074;1272;24332;-79
2023/05/16 08:34:55;;;;;;;15.20;7.40;;;;;;;15.84;83.46;99930.36;108058;1272;25433;-79
2023/05/16 08:37:26;;;;;;;15.10;7.60;;;;;;;15.87;84.04;99927.27;108010;1271;22923;-78
2023/05/16 08:39:58;;;;;;;17.20;7.60;;;;;;;15.98;84.08;99931.33;108018;1264;22633;-79
2023/05/16 08:42:29;;;;;;;14.20;6.80;;;;;;;16.03;83.78;99935.27;108018;1267;22558;-79
2023/05/16 08:45:00;;;;;;;15.70;6.80;;;;;;;16.07;83.07;99940.27;108065;1267;22548;-78
2023/05/16 08:47:33;;;;;;;15.50;6.90;;;;;;;16.10;82.14;99940.96;108176;1272;22566;-78
2023/05/16 08:50:09;;;;;;;12.70;6.30;;;;;;;16.20;83.21;99941.45;108101;1251;22561;-81
2023/05/16 08:52:41;;;;;;;13.00;6.20;;;;;;;16.28;82.44;99950.44;108434;1269;22515;-81
2023/05/16 08:55:13;;;;;;;14.90;6.20;;;;;;;16.26;81.95;99951.64;108346;1269;22620;-81
2023/05/16 08:57:46;;;;;;;10.90;5.40;;;;;;;16.21;81.39;99951.58;108331;1275;22503;-81
2023/05/16 09:00:18;;;;;;;13.00;5.00;;;;;;;16.27;81.01;99951.95;108453;1275;22508;-81
2023/05/16 09:02:50;;;;;;;15.90;5.90;;;;;;;16.40;81.06;99956.84;108558;1275;22808;-81
2023/05/16 09:05:22;;;;;;;11.10;5.50;;;;;;;16.46;79.99;99955.95;108617;1260;22468;-83
2023/05/16 09:07:53;;;;;;;13.30;5.80;;;;;;;16.46;80.16;99958.92;108823;1267;22530;-80
2023/05/16 09:10:24;;;;;;;17.40;6.50;;;;;;;16.43;79.42;99959.73;109729;1264;22540;-81
2023/05/16 09:12:55;;;;;;;14.40;5.70;;;;;;;16.38;79.16;99967.50;109503;1272;22767;-82
2023/05/16 09:15:34;;;;;;;14.60;5.80;;;;;;;16.39;78.81;99963.96;108577;1275;22510;-81
2023/05/16 09:18:05;;;;;;;14.30;5.50;;;;;;;16.45;80.05;99967.45;108446;1275;22518;-81
2023/05/16 09:20:40;;;;;;;9.70;4.10;;;;;;;16.58;79.33;99972.48;108486;1271;24242;-81
2023/05/16 09:23:11;;;;;;;10.00;4.60;;;;;;;16.72;78.40;99976.48;108587;1269;22511;-83
2023/05/16 09:25:42;;;;;;;9.70;4.40;;;;;;;16.79;78.01;99967.59;108618;1272;22552;-81
2023/05/16 09:28:13;;;;;;;13.00;5.70;;;;;;;16.90;78.46;99966.76;108574;1269;22551;-80
2023/05/16 09:30:49;;;;;;;14.30;6.00;;;;;;;16.96;77.41;99968.45;108633;1267;22650;-82
2023/05/16 09:33:22;;;;;;;13.30;5.20;;;;;;;16.95;77.54;99974.55;108512;1272;23114;-82
2023/05/16 09:35:58;;;;;;;10.50;5.00;;;;;;;16.93;76.65;99979.08;108537;1275;24225;-81
2023/05/16 09:38:29;;;;;;;12.50;5.20;;;;;;;16.86;76.44;99988.73;108486;1271;22505;-81
2023/05/16 09:41:03;;;;;;;11.90;4.60;;;;;;;16.84;75.95;99995.38;108471;1275;26655;-81
2023/05/16 09:43:34;;;;;;;10.60;5.10;;;;;;;16.88;76.67;99999.64;108543;1272;22563;-81
2023/05/16 09:46:05;;;;;;;10.40;4.30;;;;;;;16.99;75.53;100005.27;108602;1271;22520;-82
2023/05/16 09:48:35;;;;;;;10.10;3.40;;;;;;;17.09;75.26;100005.16;108569;1267;22594;-82
2023/05/16 09:51:07;;;;;;;11.20;4.90;;;;;;;17.17;74.15;100000.50;108477;1275;25446;-83
2023/05/16 09:53:40;;;;;;;9.20;4.60;;;;;;;17.27;74.87;100004.23;108522;1267;22629;-82
2023/05/16 09:56:13;;;;;;;11.60;5.10;;;;;;;17.34;74.71;100010.15;108451;1263;22630;-82
2023/05/16 09:58:46;;;;;;;12.10;4.50;;;;;;;17.34;74.71;100016.15;108518;1267;27409;-83
2023/05/16 10:01:16;;;;;;;16.20;5.40;;;;;;;17.33;74.18;100020.90;108622;1269;24289;-83
2023/05/16 10:03:47;;;;;;;14.60;4.80;;;;;;;17.31;73.71;100021.84;108561;1267;22483;-81
2023/05/16 10:06:19;;;;;;;13.10;5.10;;;;;;;17.32;73.86;100021.93;108556;1275;23490;-81
2023/05/16 10:08:51;;;;;;;12.10;3.70;;;;;;;17.42;74.13;100019.25;108488;1271;25285;-81
2023/05/16 10:11:22;;;;;;;9.90;4.20;;;;;;;17.52;73.02;100013.59;108724;1272;23427;-84
2023/05/16 10:13:53;;;;;;;9.10;4.00;;;;;;;17.57;72.94;100013.69;108719;1264;22630;-82
2023/05/16 10:16:24;;;;;;;10.30;4.10;;;;;;;17.55;72.65;100012.17;108844;1272;23742;-84
2023/05/16 10:18:57;;;;;;;10.70;4.30;;;;;;;17.56;72.78;100010.16;108879;1274;22465;-84
2023/05/16 10:21:32;;;;;;;12.50;4.20;;;;;;;17.59;72.58;100010.58;108712;1269;23387;-83
2023/05/16 10:24:08;;;;;;;10.80;4.70;;;;;;;17.60;71.78;100002.36;108746;1267;23354;-84
2023/05/16 10:26:39;;;;;;;14.80;4.50;;;;;;;17.62;72.00;99998.67;108839;1263;25259;-83
2023/05/16 10:29:10;;;;;;;10.40;4.50;;;;;;;17.69;71.51;99994.64;108740;1272;22556;-84
2023/05/16 10:31:41;;;;;;;10.40;3.80;;;;;;;17.79;71.61;99996.80;108897;1267;22540;-84
2023/05/16 10:34:12;;;;;;;11.80;3.90;;;;;;;17.89;70.98;100006.67;108804;1271;24249;-83
2023/05/16 10:36:44;;;;;;;10.00;3.50;;;;;;;17.92;70.47;100007.09;108717;1267;23729;-83
2023/05/16 10:39:17;;;;;;;14.50;3.80;;;;;;;17.90;69.91;100004.72;108467;1274;25329;-83
2023/05/16 10:41:48;;;;;;;7.60;3.00;;;;;;;17.86;69.63;99999.74;108616;1269;22568;-82
2023/05/16 10:44:19;;;;;;;9.70;3.20;;;;;;;17.88;69.39;100004.13;108742;1270;25556;-83
2023/05/16 10:46:50;;;;;;;9.60;3.70;;;;;;;17.95;68.83;100008.39;108671;1267;22603;-83
2023/05/16 10:49:27;;;;;;;10.90;3.80;;;;;;;17.94;68.33;100006.77;109051;1272;22534;-80
2023/05/16 10:52:08;;;;;;;10.70;3.90;;;;;;;17.97;69.12;100004.18;108585;1268;22556;-82
2023/05/16 10:54:41;;;;;;;10.20;4.50;;;;;;;18.04;68.70;100010.84;108639;1267;23017;-83
2023/05/16 10:57:24;;;;;;;8.60;3.70;;;;;;;18.00;68.23;100015.45;108600;1274;25731;-83
2023/05/16 11:00:00;;;;;;;9.60;3.30;;;;;;;17.87;68.31;100009.89;108710;1272;22591;-83
2023/05/16 11:02:33;;;;;;;10.80;4.00;;;;;;;17.78;67.93;100010.73;108714;1269;22667;-82
2023/05/16 11:05:12;;;;;;;9.80;3.60;;;;;;;17.74;67.67;100009.77;108731;1275;22679;-84
2023/05/16 11:07:43;;;;;;;9.80;3.40;;;;;;;17.78;67.42;100003.95;108761;1269;22568;-83
2023/05/16 11:10:18;;;;;;;13.00;4.10;;;;;;;17.83;66.79;100000.03;108544;1269;22582;-82
2023/05/16 11:12:54;;;;;;;13.00;3.80;;;;;;;17.89;67.57;99998.11;108270;1267;22517;-82
2023/05/16 11:15:33;;;;;;;8.70;2.90;;;;;;;18.02;67.30;99993.55;108325;1272;25428;-82
2023/05/16 11:18:09;;;;;;;9.10;3.40;;;;;;;18.08;66.74;99995.66;108225;1252;22692;-81
2023/05/16 11:20:40;;;;;;;10.60;2.90;;;;;;;18.12;66.20;99994.94;108281;1271;23900;-81
2023/05/16 11:23:25;;;;;;;8.50;3.10;;;;;;;18.14;65.88;99989.20;108261;1272;22571;-81
2023/05/16 11:25:59;;;;;;;12.60;5.20;;;;;;;18.12;65.93;99994.52;108207;1267;25527;-81
2023/05/16 11:28:30;;;;;;;12.40;6.00;;;;;;;18.12;66.85;99992.36;108157;1271;24225;-81
2023/05/16 11:31:04;;;;;;;10.70;4.70;;;;;;;18.12;66.45;99993.91;108216;1272;22530;-81
2023/05/16 11:33:35;;;;;;;13.90;5.20;;;;;;;18.11;67.12;99998.19;108249;1269;22596;-82
2023/05/16 11:36:08;;;;;;;11.80;5.50;;;;;;;18.16;66.59;99996.36;108128;1274;22658;-81
2023/05/16 11:38:47;;;;;;;12.40;5.80;;;;;;;18.18;66.70;99988.83;108252;1272;24231;-81